createdAt,value
2023-05-06T00:04:16.199Z,100286.31
2023-05-06T00:09:17.893Z,100296.41
2023-05-06T00:14:19.316Z,100285.66
2023-05-06T00:19:20.886Z,100272.66
2023-05-06T00:24:22.311Z,100275.38
2023-05-06T00:29:24.034Z,100260.91
2023-05-06T00:34:25.519Z,100258.25
2023-05-06T00:39:26.983Z,100260.03
2023-05-06T00:44:29.142Z,100268.56
2023-05-06T00:49:30.980Z,100255.94
2023-05-06T00:54:32.553Z,100256.19
2023-05-06T00:59:33.970Z,100253.88
2023-05-06T01:04:36.057Z,100250.72
2023-05-06T01:10:00.077Z,100247.28
2023-05-06T01:15:14.859Z,100258.25
2023-05-06T01:20:17.890Z,100259.22
2023-05-06T01:25:21.287Z,100261.16
2023-05-06T01:30:23.813Z,100268.75
2023-05-06T01:35:58.490Z,100275.75
2023-05-06T01:41:01.723Z,100263.41
2023-05-06T01:46:03.645Z,100266.84
2023-05-06T01:51:05.539Z,100251.66
2023-05-06T01:56:07.520Z,100236.72
2023-05-06T02:01:08.975Z,100226.13
2023-05-06T02:06:10.750Z,100227.59
2023-05-06T02:11:12.289Z,100238.41
2023-05-06T02:16:13.758Z,100241.06
2023-05-06T02:21:15.247Z,100235.72
2023-05-06T02:26:16.722Z,100231.69
2023-05-06T02:31:18.157Z,100236.44
2023-05-06T02:36:19.584Z,100224.16
2023-05-06T02:41:21.330Z,100231.69
2023-05-06T02:46:23.021Z,100225.69
2023-05-06T02:51:24.576Z,100216.97
2023-05-06T02:56:26.118Z,100224.69
2023-05-06T03:01:27.611Z,100234.50
2023-05-06T03:06:29.082Z,100261.44
2023-05-06T03:11:31.544Z,100250.44
2023-05-06T03:16:33.154Z,100263.34
2023-05-06T03:21:34.703Z,100272.00
2023-05-06T03:26:36.206Z,100272.53
2023-05-06T03:31:37.780Z,100277.41
2023-05-06T03:36:39.307Z,100280.03
2023-05-06T03:41:40.802Z,100272.91
2023-05-06T03:46:42.386Z,100270.00
2023-05-06T03:51:43.902Z,100270.78
2023-05-06T03:56:45.336Z,100269.00
2023-05-06T04:01:46.877Z,100260.16
2023-05-06T04:06:48.343Z,100251.47
2023-05-06T04:11:49.778Z,100252.00
2023-05-06T04:16:51.228Z,100250.13
2023-05-06T04:21:52.652Z,100245.03
2023-05-06T04:26:54.149Z,100234.41
2023-05-06T04:31:55.766Z,100220.03
2023-05-06T04:36:58.590Z,100192.66
2023-05-06T04:42:00.094Z,100180.50
2023-05-06T04:47:01.621Z,100151.88
2023-05-06T04:52:04.401Z,100120.75
2023-05-06T04:57:05.918Z,100150.38
2023-05-06T05:02:07.369Z,100191.44
2023-05-06T05:07:09.001Z,100213.09
2023-05-06T05:12:10.409Z,100227.31
2023-05-06T05:17:11.894Z,100233.41
2023-05-06T05:22:13.374Z,100232.88
2023-05-06T05:27:14.838Z,100215.47
2023-05-06T05:32:16.432Z,100205.53
2023-05-06T05:37:17.859Z,100217.19
2023-05-06T05:42:20.092Z,100233.06
2023-05-06T05:47:21.863Z,100231.09
2023-05-06T05:52:23.390Z,100213.50
2023-05-06T05:57:24.867Z,100216.34
2023-05-06T06:02:26.563Z,100224.78
2023-05-06T06:07:28.121Z,100232.22
2023-05-06T06:12:29.573Z,100229.78
2023-05-06T06:17:31.090Z,100215.66
2023-05-06T06:22:32.532Z,100216.16
2023-05-06T06:27:36.063Z,100209.13
2023-05-06T06:32:47.641Z,100226.59
2023-05-06T06:37:49.322Z,100231.25
2023-05-06T06:42:51.210Z,100231.63
2023-05-06T06:47:53.638Z,100231.03
2023-05-06T06:52:55.118Z,100223.91
2023-05-06T06:57:56.554Z,100233.47
2023-05-06T07:02:58.080Z,100227.84
2023-05-06T07:07:59.541Z,100229.28
2023-05-06T07:13:01.090Z,100225.75
2023-05-06T07:18:02.613Z,100210.16
2023-05-06T07:23:04.092Z,100221.56
2023-05-06T07:28:05.784Z,100207.19
2023-05-06T07:33:07.685Z,100188.06
2023-05-06T07:38:09.208Z,100207.19
2023-05-06T07:43:10.705Z,100196.53
2023-05-06T07:48:12.499Z,100191.00
2023-05-06T07:53:14.025Z,100175.53
2023-05-06T07:58:15.815Z,100166.91
2023-05-06T08:03:17.352Z,100162.63
2023-05-06T08:08:19.924Z,100140.19
2023-05-06T08:13:21.687Z,100119.16
2023-05-06T08:18:23.554Z,100172.66
2023-05-06T08:23:25.056Z,100218.31
2023-05-06T08:28:26.552Z,100232.97
2023-05-06T08:33:30.887Z,100244.75
2023-05-06T08:38:32.374Z,100255.09
2023-05-06T08:43:40.113Z,100258.06
2023-05-06T08:48:41.597Z,100238.88
2023-05-06T08:53:48.222Z,100241.47
2023-05-06T08:58:52.014Z,100225.50
2023-05-06T09:03:55.928Z,100221.22
2023-05-06T09:08:57.688Z,100219.72
2023-05-06T09:14:12.348Z,100192.81
2023-05-06T09:19:14.789Z,100201.28
2023-05-06T09:24:17.166Z,100203.97
2023-05-06T09:29:18.640Z,100215.38
2023-05-06T09:34:21.160Z,100211.41
2023-05-06T09:39:26.609Z,100220.59
2023-05-06T09:44:29.000Z,100221.31
2023-05-06T09:49:30.581Z,100214.16
2023-05-06T09:54:32.661Z,100211.72
2023-05-06T09:59:34.680Z,100223.75
2023-05-06T10:04:38.481Z,100216.22
2023-05-06T10:09:41.798Z,100210.56
2023-05-06T10:14:43.226Z,100214.03
2023-05-06T10:19:52.303Z,100198.06
2023-05-06T10:25:06.321Z,100195.09
2023-05-06T10:30:10.301Z,100193.09
2023-05-06T10:35:17.601Z,100190.84
2023-05-06T10:40:19.591Z,100188.69
2023-05-06T10:45:21.278Z,100205.25
2023-05-06T10:50:24.047Z,100206.72
2023-05-06T10:55:32.815Z,100213.69
2023-05-06T11:00:34.806Z,100203.53
2023-05-06T11:05:50.608Z,100200.19
2023-05-06T11:10:53.046Z,100210.81
2023-05-06T11:15:55.821Z,100209.38
2023-05-06T11:21:00.526Z,100201.38
2023-05-06T11:26:07.190Z,100188.91
2023-05-06T11:31:09.806Z,100206.25
2023-05-06T11:36:15.330Z,100203.22
2023-05-06T11:41:17.694Z,100199.63
2023-05-06T11:46:20.622Z,100207.09
2023-05-06T11:51:23.197Z,100209.41
2023-05-06T11:56:25.032Z,100230.31
2023-05-06T12:01:26.474Z,100227.78
2023-05-06T12:06:34.288Z,100228.44
2023-05-06T12:11:36.627Z,100230.03
2023-05-06T12:16:38.708Z,100234.25
2023-05-06T12:21:40.302Z,100233.19
2023-05-06T12:26:49.282Z,100233.31
2023-05-06T12:32:06.289Z,100232.97
2023-05-06T12:37:11.454Z,100236.97
2023-05-06T12:42:20.450Z,100239.25
2023-05-06T12:47:22.868Z,100237.53
2023-05-06T12:52:29.874Z,100239.34
2023-05-06T12:57:31.476Z,100246.06
2023-05-06T13:02:32.990Z,100233.97
2023-05-06T13:07:34.501Z,100233.72
2023-05-06T13:12:36.273Z,100227.91
2023-05-06T13:17:37.868Z,100229.09
2023-05-06T13:22:53.326Z,100235.66
2023-05-06T13:27:56.031Z,100234.28
2023-05-06T13:32:57.829Z,100233.13
2023-05-06T13:37:59.641Z,100229.13
2023-05-06T13:43:01.100Z,100227.81
2023-05-06T13:48:02.700Z,100229.00
2023-05-06T13:53:04.414Z,100229.91
2023-05-06T13:58:07.033Z,100229.63
2023-05-06T14:03:08.590Z,100227.28
2023-05-06T14:08:10.226Z,100237.22
2023-05-06T14:13:11.789Z,100236.69
2023-05-06T14:18:13.348Z,100237.22
2023-05-06T14:23:14.824Z,100235.22
2023-05-06T14:28:16.395Z,100240.91
2023-05-06T14:33:17.817Z,100237.03
2023-05-06T14:38:19.930Z,100241.34
2023-05-06T14:43:21.494Z,100240.22
2023-05-06T14:48:25.289Z,100236.41
2023-05-06T14:53:26.738Z,100242.72
2023-05-06T14:58:28.215Z,100249.59
2023-05-06T15:03:29.660Z,100254.13
2023-05-06T15:08:31.478Z,100269.81
2023-05-06T15:13:32.942Z,100264.97
2023-05-06T15:18:34.358Z,100257.78
2023-05-06T15:23:35.810Z,100261.03
2023-05-06T15:28:37.234Z,100264.44
2023-05-06T15:33:38.654Z,100274.41
2023-05-06T15:38:51.927Z,100281.09
2023-05-06T15:43:55.996Z,100281.97
2023-05-06T15:49:15.656Z,100288.13
2023-05-06T15:54:19.179Z,100295.84
2023-05-06T15:59:20.624Z,100296.94
2023-05-06T16:04:22.608Z,100300.91
2023-05-06T16:09:24.449Z,100297.38
2023-05-06T16:14:25.855Z,100305.59
2023-05-06T16:19:27.339Z,100303.47
2023-05-06T16:24:28.795Z,100304.66
2023-05-06T16:29:30.328Z,100303.91
2023-05-06T16:34:31.872Z,100307.59
2023-05-06T16:39:33.306Z,100303.91
2023-05-06T16:44:35.130Z,100311.16
2023-05-06T16:49:36.576Z,100308.81
2023-05-06T16:54:38.125Z,100305.50
2023-05-06T16:59:39.574Z,100308.38
2023-05-06T17:04:41.413Z,100324.59
2023-05-06T17:09:43.263Z,100328.50
2023-05-06T17:14:44.808Z,100332.50
2023-05-06T17:19:46.241Z,100324.88
2023-05-06T17:24:47.717Z,100327.94
2023-05-06T17:29:49.190Z,100326.81
2023-05-06T17:34:50.675Z,100334.69
2023-05-06T17:39:53.274Z,100337.69
2023-05-06T17:44:54.832Z,100343.09
2023-05-06T17:49:56.423Z,100354.38
2023-05-06T17:55:16.504Z,100349.94
2023-05-06T18:00:19.288Z,100358.69
2023-05-06T18:05:21.767Z,100347.97
2023-05-06T18:10:23.243Z,100354.50
2023-05-06T18:15:25.746Z,100366.25
2023-05-06T18:20:27.311Z,100373.50
2023-05-06T18:25:28.727Z,100374.47
2023-05-06T18:30:30.353Z,100385.41
2023-05-06T18:35:31.764Z,100390.66
2023-05-06T18:40:34.014Z,100404.41
2023-05-06T18:45:35.540Z,100402.66
2023-05-06T18:50:37.374Z,100414.97
2023-05-06T18:55:38.783Z,100409.56
2023-05-06T19:00:40.924Z,100413.78
2023-05-06T19:05:42.457Z,100418.97
2023-05-06T19:10:43.900Z,100433.34
2023-05-06T19:15:45.473Z,100433.41
2023-05-06T19:20:46.930Z,100441.53
2023-05-06T19:25:48.378Z,100437.13
2023-05-06T19:30:49.813Z,100452.78
2023-05-06T19:35:51.571Z,100454.56
2023-05-06T19:40:53.615Z,100450.38
2023-05-06T19:45:55.237Z,100455.63
2023-05-06T19:50:56.688Z,100457.28
2023-05-06T19:55:59.285Z,100463.03
2023-05-06T20:01:00.742Z,100467.03
2023-05-06T20:06:02.409Z,100473.41
2023-05-06T20:11:04.220Z,100471.28
2023-05-06T20:16:05.955Z,100466.19
2023-05-06T20:21:07.453Z,100474.72
2023-05-06T20:26:08.911Z,100477.00
2023-05-06T20:31:10.756Z,100477.78
2023-05-06T20:36:12.319Z,100474.91
2023-05-06T20:41:13.719Z,100487.63
2023-05-06T20:46:15.209Z,100480.50
2023-05-06T20:51:16.898Z,100480.97
2023-05-06T20:56:24.796Z,100485.06
2023-05-06T21:01:27.342Z,100478.81
2023-05-06T21:06:28.947Z,100487.84
2023-05-06T21:11:30.374Z,100497.13
2023-05-06T21:16:31.821Z,100489.59
2023-05-06T21:21:33.562Z,100490.56
2023-05-06T21:26:35.709Z,100495.72
2023-05-06T21:31:37.396Z,100496.47
2023-05-06T21:36:38.943Z,100497.13
2023-05-06T21:41:40.522Z,100498.63
2023-05-06T21:46:41.994Z,100512.97
2023-05-06T21:51:43.521Z,100512.78
2023-05-06T21:56:44.946Z,100515.06
2023-05-06T22:01:46.379Z,100516.00
2023-05-06T22:06:47.829Z,100515.69
2023-05-06T22:11:49.732Z,100521.28
2023-05-06T22:16:52.727Z,100522.34
2023-05-06T22:21:54.452Z,100524.31
2023-05-06T22:26:55.955Z,100510.50
2023-05-06T22:31:57.460Z,100532.50
2023-05-06T22:37:00.482Z,100530.66
2023-05-06T22:42:02.575Z,100523.00
2023-05-06T22:47:04.034Z,100532.06
2023-05-06T22:52:05.609Z,100531.72
2023-05-06T22:57:07.205Z,100537.75
2023-05-06T23:02:08.713Z,100539.81
2023-05-06T23:07:10.244Z,100545.50
2023-05-06T23:12:11.706Z,100530.09
2023-05-06T23:17:13.157Z,100537.53
2023-05-06T23:22:14.645Z,100542.81
2023-05-06T23:27:16.060Z,100540.13
2023-05-06T23:32:17.698Z,100549.28
2023-05-06T23:37:19.155Z,100555.75
2023-05-06T23:42:21.286Z,100547.16
2023-05-06T23:47:24.517Z,100551.22
2023-05-06T23:52:26.075Z,100560.28
2023-05-06T23:57:27.526Z,100563.53
